Time;durP1;ratioP1;P1;durP2;ratioP2;P2;SDS_P1;SDS_P2;PMS_P1;PMS_P2;Temp;Humidity;BMP_temperature;BMP_pressure;BME280_temperature;BME280_humidity;BME280_pressure;Samples;Min_cycle;Max_cycle;Signal;HPM_P1;HPM_P2
2022/09/02 00:01:26;;;;;;;7.00;4.05;;;;;;;9.89;66.74;99904.04;1605521;88;22236;-77
2022/09/02 00:03:59;;;;;;;7.45;4.17;;;;;;;9.84;66.58;99902.84;1604924;88;21101;-77
2022/09/02 00:06:25;;;;;;;6.83;4.33;;;;;;;9.81;67.08;99902.91;1605143;88;21153;-77
2022/09/02 00:08:52;;;;;;;6.15;4.30;;;;;;;9.78;67.65;99908.23;1604944;88;21126;-77
2022/09/02 00:11:22;;;;;;;5.00;4.30;;;;;;;9.76;67.73;99906.11;1605098;88;21240;-77
2022/09/02 00:13:49;;;;;;;9.00;4.67;;;;;;;9.74;68.00;99906.60;1634698;86;21642;-77
2022/09/02 00:16:16;;;;;;;6.08;4.00;;;;;;;9.71;67.78;99913.23;1605061;89;21136;-77
2022/09/02 00:18:43;;;;;;;5.12;4.20;;;;;;;9.66;67.75;99912.88;1619100;88;21139;-77
2022/09/02 00:21:12;;;;;;;9.28;4.70;;;;;;;9.64;67.79;99913.84;1629514;88;21182;-77
2022/09/02 00:23:39;;;;;;;7.67;4.60;;;;;;;9.60;68.08;99914.80;1629465;88;21612;-77
2022/09/02 00:26:06;;;;;;;9.53;5.10;;;;;;;9.56;68.43;99919.27;1629459;86;21222;-77
2022/09/02 00:28:34;;;;;;;17.32;4.97;;;;;;;9.52;68.35;99920.25;1629356;88;21492;-77
2022/09/02 00:31:01;;;;;;;12.88;5.15;;;;;;;9.48;68.12;99924.72;1629311;88;21082;-77
2022/09/02 00:33:30;;;;;;;10.40;5.45;;;;;;;9.47;68.42;99928.69;1629108;88;21099;-77
2022/09/02 00:36:00;;;;;;;7.72;5.15;;;;;;;9.47;69.16;99927.38;1629392;88;21129;-77
2022/09/02 00:38:28;;;;;;;8.50;5.60;;;;;;;9.47;69.55;99924.75;1629295;88;22030;-76
2022/09/02 00:40:54;;;;;;;14.58;5.62;;;;;;;9.45;69.28;99925.25;1629227;88;21520;-77
2022/09/02 00:43:45;;;;;;;8.93;5.22;;;;;;;9.42;69.04;99925.31;1629381;88;21758;-77
2022/09/02 00:46:14;;;;;;;12.47;5.33;;;;;;;9.40;69.22;99928.43;1629485;88;21018;-77
2022/09/02 00:48:49;;;;;;;8.30;5.25;;;;;;;9.36;69.31;99934.17;1629328;88;21166;-77
2022/09/02 00:51:15;;;;;;;11.60;5.85;;;;;;;9.33;69.61;99936.90;1629610;87;21151;-77
2022/09/02 00:53:43;;;;;;;7.45;5.42;;;;;;;9.33;69.77;99935.59;1629102;88;21067;-76
2022/09/02 00:56:14;;;;;;;11.40;5.37;;;;;;;9.34;69.48;99940.37;1629606;87;21161;-77
2022/09/02 00:58:42;;;;;;;13.58;5.92;;;;;;;9.35;69.16;99944.75;1641777;87;21051;-77
2022/09/02 01:01:10;;;;;;;10.45;5.92;;;;;;;9.31;69.17;99947.86;1629328;88;21142;-77
2022/09/02 01:03:37;;;;;;;7.55;5.30;;;;;;;9.27;69.32;99944.91;1629354;88;21933;-77
2022/09/02 01:06:04;;;;;;;9.43;6.00;;;;;;;9.25;69.45;99953.27;1629194;88;21054;-77
2022/09/02 01:08:34;;;;;;;9.20;5.97;;;;;;;9.20;69.77;99951.20;1629299;88;21103;-76
2022/09/02 01:11:02;;;;;;;12.90;6.03;;;;;;;9.18;69.91;99955.17;1629306;88;21562;-77
2022/09/02 01:13:30;;;;;;;8.95;5.25;;;;;;;9.14;69.81;99957.42;1629298;88;21003;-76
2022/09/02 01:16:02;;;;;;;9.28;5.85;;;;;;;9.11;69.81;99957.06;1629138;88;21580;-76
2022/09/02 01:18:29;;;;;;;11.40;6.90;;;;;;;9.10;70.28;99959.72;1623004;87;21106;-77
2022/09/02 01:20:59;;;;;;;9.25;6.12;;;;;;;9.04;71.02;99958.52;1618752;88;21087;-77
2022/09/02 01:23:27;;;;;;;8.18;5.80;;;;;;;9.02;70.98;99962.48;1617562;88;21586;-76
2022/09/02 01:25:54;;;;;;;8.45;5.78;;;;;;;9.03;70.58;99961.61;1618723;88;21058;-76
2022/09/02 01:28:21;;;;;;;8.43;5.80;;;;;;;9.02;70.83;99962.95;1618628;88;21140;-76
2022/09/02 01:30:51;;;;;;;8.20;5.90;;;;;;;8.98;70.72;99963.47;1618566;88;21083;-77
2022/09/02 01:33:18;;;;;;;7.35;5.60;;;;;;;8.96;70.42;99969.63;1618637;88;21095;-76
2022/09/02 01:35:45;;;;;;;9.20;5.78;;;;;;;8.92;69.97;99974.94;1618530;88;21008;-76
2022/09/02 01:38:12;;;;;;;10.28;5.47;;;;;;;8.89;70.06;99975.02;1618669;87;21095;-76
2022/09/02 01:40:39;;;;;;;11.40;5.90;;;;;;;8.87;70.03;99978.10;1618675;88;21260;-77
2022/09/02 01:43:10;;;;;;;9.43;5.60;;;;;;;8.87;70.35;99972.86;1618823;88;21024;-77
2022/09/02 01:45:37;;;;;;;10.10;6.03;;;;;;;8.85;70.16;99975.97;1618872;88;21689;-77
2022/09/02 01:48:04;;;;;;;8.50;6.10;;;;;;;8.82;70.10;99974.70;1618424;88;21131;-77
2022/09/02 01:50:32;;;;;;;9.53;5.80;;;;;;;8.78;70.41;99979.61;1618698;88;21039;-76
2022/09/02 01:53:00;;;;;;;10.70;6.03;;;;;;;8.74;70.29;99985.80;1618633;88;21574;-77
2022/09/02 01:55:27;;;;;;;10.38;6.28;;;;;;;8.72;71.06;99985.86;1618835;88;21472;-76
2022/09/02 01:57:53;;;;;;;10.50;5.97;;;;;;;8.69;71.27;99982.41;1618664;88;21024;-76
2022/09/02 02:00:21;;;;;;;11.40;5.97;;;;;;;8.71;71.13;99989.82;1618723;88;21086;-77
2022/09/02 02:02:48;;;;;;;8.35;5.78;;;;;;;8.70;70.78;99990.70;1618672;88;21115;-77
2022/09/02 02:05:14;;;;;;;13.15;6.62;;;;;;;8.68;70.44;99989.88;1618858;88;21112;-77
2022/09/02 02:07:42;;;;;;;9.55;5.78;;;;;;;8.64;70.43;99986.88;1618652;87;21027;-77
2022/09/02 02:10:11;;;;;;;12.33;6.45;;;;;;;8.61;70.49;99997.42;1618749;88;21055;-76
2022/09/02 02:12:38;;;;;;;10.15;6.00;;;;;;;8.59;70.52;99996.59;1618837;88;21481;-76
2022/09/02 02:15:10;;;;;;;13.53;6.62;;;;;;;8.57;70.97;99993.14;1618605;87;21048;-77
2022/09/02 02:17:37;;;;;;;13.45;6.65;;;;;;;8.54;71.47;100000.63;1617962;88;21152;-77
2022/09/02 02:20:08;;;;;;;8.25;5.75;;;;;;;8.52;71.72;99994.53;1618602;88;21576;-77
2022/09/02 02:22:36;;;;;;;8.75;6.35;;;;;;;8.51;71.55;100004.16;1618710;87;21222;-77
2022/09/02 02:25:04;;;;;;;9.20;6.00;;;;;;;8.50;71.67;100003.73;1618956;88;21221;-77
2022/09/02 02:27:31;;;;;;;12.23;6.50;;;;;;;8.46;71.42;99999.45;1618719;88;21696;-77
2022/09/02 02:30:00;;;;;;;10.95;6.28;;;;;;;8.47;70.70;99997.68;1618892;88;21148;-77
2022/09/02 02:32:28;;;;;;;11.03;7.05;;;;;;;8.44;70.34;99997.31;1618612;88;21107;-77
2022/09/02 02:34:55;;;;;;;15.45;6.70;;;;;;;8.39;70.65;99997.80;1618902;88;21178;-77
2022/09/02 02:37:21;;;;;;;10.90;7.00;;;;;;;8.35;70.86;99997.00;1618483;88;21169;-77
2022/09/02 02:39:48;;;;;;;9.05;6.30;;;;;;;8.32;70.77;99999.67;1618847;88;21249;-77
2022/09/02 02:42:16;;;;;;;11.45;7.08;;;;;;;8.27;70.76;99996.27;1618837;88;21233;-77
2022/09/02 02:44:43;;;;;;;13.28;6.72;;;;;;;8.23;71.06;99994.58;1618568;88;21158;-77
2022/09/02 02:47:09;;;;;;;10.75;7.10;;;;;;;8.22;71.35;99995.91;1618981;88;21105;-77
2022/09/02 02:49:38;;;;;;;13.90;7.15;;;;;;;8.16;71.29;100005.61;1620781;87;21130;-77
2022/09/02 02:52:05;;;;;;;12.35;7.10;;;;;;;8.12;70.94;99998.70;1621116;88;21285;-77
2022/09/02 02:54:32;;;;;;;13.58;7.72;;;;;;;8.09;71.16;100013.62;1620877;88;21135;-77
2022/09/02 02:56:59;;;;;;;11.78;7.42;;;;;;;8.07;71.43;100014.06;1620977;87;21110;-77
2022/09/02 02:59:25;;;;;;;11.30;6.95;;;;;;;8.04;71.42;100018.08;1620690;88;21090;-77
2022/09/02 03:01:52;;;;;;;15.03;7.53;;;;;;;8.01;71.70;100015.04;1620709;87;21083;-77
2022/09/02 03:04:19;;;;;;;12.13;7.62;;;;;;;7.98;71.94;100020.33;1620946;88;21063;-77
2022/09/02 03:06:45;;;;;;;11.38;7.28;;;;;;;7.95;71.99;100017.33;1620864;88;21138;-77
2022/09/02 03:09:13;;;;;;;11.78;7.30;;;;;;;7.93;71.97;100027.39;1620768;88;21098;-77
2022/09/02 03:11:40;;;;;;;13.43;7.83;;;;;;;7.92;71.69;100034.40;1620783;88;21338;-77
2022/09/02 03:14:07;;;;;;;14.47;7.85;;;;;;;7.92;71.64;100032.23;1618653;88;21185;-77
2022/09/02 03:16:34;;;;;;;15.55;8.58;;;;;;;7.89;71.65;100030.97;1618634;88;21114;-77
2022/09/02 03:19:01;;;;;;;16.32;8.05;;;;;;;7.87;71.86;100032.72;1618917;88;21155;-77
2022/09/02 03:21:29;;;;;;;17.52;9.15;;;;;;;7.83;71.86;100029.73;1621231;87;21117;-77
2022/09/02 03:23:56;;;;;;;19.30;9.18;;;;;;;7.79;71.88;100034.16;1618836;88;21079;-76
2022/09/02 03:26:23;;;;;;;18.62;9.63;;;;;;;7.78;72.16;100036.34;1618965;88;21024;-77
2022/09/02 03:28:55;;;;;;;21.00;9.10;;;;;;;7.77;72.37;100041.19;1618696;88;21110;-76
2022/09/02 03:31:23;;;;;;;15.70;9.65;;;;;;;7.74;72.32;100042.08;1596187;88;21872;-74
2022/09/02 03:33:50;;;;;;;14.60;9.45;;;;;;;7.73;72.56;100044.30;1618590;88;21006;-77
2022/09/02 03:36:28;;;;;;;16.27;10.25;;;;;;;7.74;72.80;100046.01;1618678;88;21383;-77
2022/09/02 03:38:55;;;;;;;21.82;10.82;;;;;;;7.74;72.95;100051.25;1606907;89;21130;-77
2022/09/02 03:41:22;;;;;;;18.10;10.55;;;;;;;7.74;72.96;100059.56;1607044;88;21086;-76
2022/09/02 03:43:49;;;;;;;24.05;10.80;;;;;;;7.73;73.21;100053.47;1621143;86;21137;-77
2022/09/02 03:46:16;;;;;;;26.05;11.60;;;;;;;7.75;73.39;100060.85;1620716;88;21173;-76
2022/09/02 03:48:44;;;;;;;20.27;10.88;;;;;;;7.79;73.56;100064.28;1621103;88;21570;-77
2022/09/02 03:51:11;;;;;;;22.17;11.65;;;;;;;7.81;73.70;100063.36;1620862;87;21563;-77
2022/09/02 03:53:39;;;;;;;28.80;11.90;;;;;;;7.86;73.74;100070.30;1620805;88;21602;-77
2022/09/02 03:56:10;;;;;;;21.25;11.85;;;;;;;7.89;74.09;100071.58;1620741;88;21856;-77
2022/09/02 03:58:38;;;;;;;23.32;12.68;;;;;;;7.94;73.97;100077.16;1620779;88;21055;-77
2022/09/02 04:01:06;;;;;;;26.10;12.33;;;;;;;8.01;74.09;100085.80;1620829;88;21564;-76
2022/09/02 04:03:33;;;;;;;30.57;12.45;;;;;;;8.07;74.10;100085.72;1620877;88;21486;-76
2022/09/02 04:06:01;;;;;;;25.75;13.43;;;;;;;8.13;74.94;100086.91;1621105;88;20913;-76
2022/09/02 04:08:28;;;;;;;28.83;13.03;;;;;;;8.19;74.91;100088.13;1620669;88;21284;-77
2022/09/02 04:10:57;;;;;;;22.75;12.20;;;;;;;8.27;75.11;100089.76;1620782;88;21045;-77
2022/09/02 04:13:25;;;;;;;25.10;12.88;;;;;;;8.33;74.92;100084.43;1620943;88;21091;-76
2022/09/02 04:15:52;;;;;;;30.30;13.75;;;;;;;8.40;74.65;100088.67;1620862;88;21116;-77
2022/09/02 04:18:21;;;;;;;21.30;12.65;;;;;;;8.46;74.60;100093.86;1620849;88;21100;-77
2022/09/02 04:20:49;;;;;;;28.52;14.05;;;;;;;8.54;74.43;100093.28;1642638;87;21231;-77
2022/09/02 04:23:15;;;;;;;26.27;13.72;;;;;;;8.64;74.03;100095.73;1605178;88;22338;-77
2022/09/02 04:25:43;;;;;;;29.87;14.20;;;;;;;8.71;74.63;100101.31;1604893;89;21716;-77
2022/09/02 04:28:09;;;;;;;31.20;14.55;;;;;;;8.77;75.27;100094.63;1604757;89;21666;-76
2022/09/02 04:30:40;;;;;;;36.88;15.28;;;;;;;8.86;75.73;100100.15;1604904;88;21150;-77
2022/09/02 04:33:07;;;;;;;37.40;16.60;;;;;;;8.92;75.70;100098.28;1604898;89;21276;-77
2022/09/02 04:35:36;;;;;;;37.28;15.90;;;;;;;9.00;75.83;100103.86;1605044;89;21149;-77
2022/09/02 04:38:04;;;;;;;32.88;16.40;;;;;;;9.08;75.65;100103.27;1584499;89;21102;-77
2022/09/02 04:40:30;;;;;;;44.10;19.45;;;;;;;9.18;76.07;100100.88;1604811;89;21441;-78
2022/09/02 04:42:57;;;;;;;42.20;19.37;;;;;;;9.28;76.12;100102.42;1604944;89;21109;-77
2022/09/02 04:45:24;;;;;;;44.93;20.57;;;;;;;9.38;76.17;100103.11;1646779;86;21255;-77
2022/09/02 04:47:51;;;;;;;46.83;22.85;;;;;;;9.49;76.07;100107.67;1646306;87;21090;-77
2022/09/02 04:50:18;;;;;;;60.88;26.40;;;;;;;9.60;75.72;100108.78;1646179;86;21317;-78
2022/09/02 04:52:47;;;;;;;68.00;28.47;;;;;;;9.67;75.32;100101.17;1646819;86;21118;-78
2022/09/02 04:55:13;;;;;;;82.80;33.18;;;;;;;9.78;75.16;100109.27;1646346;87;21158;-77
2022/09/02 04:57:40;;;;;;;85.28;36.13;;;;;;;9.89;74.86;100105.11;1605911;88;21150;-77
2022/09/02 05:00:10;;;;;;;78.30;37.48;;;;;;;9.98;74.48;100108.37;1604808;88;21110;-77
2022/09/02 05:02:37;;;;;;;81.53;36.53;;;;;;;10.08;74.37;100110.80;1604732;89;21712;-78
2022/09/02 05:05:07;;;;;;;85.85;38.58;;;;;;;10.17;74.05;100104.89;1604703;89;21111;-78
2022/09/02 05:07:36;;;;;;;79.05;39.23;;;;;;;10.30;74.43;100109.39;1604776;88;21200;-78
2022/09/02 05:10:04;;;;;;;89.92;38.98;;;;;;;10.43;73.90;100111.77;1605064;89;21161;-77
2022/09/02 05:12:34;;;;;;;88.45;41.53;;;;;;;10.55;73.53;100112.31;1606079;89;22273;-78
2022/09/02 05:15:01;;;;;;;100.07;45.45;;;;;;;10.67;73.35;100109.83;1646353;86;21399;-77
2022/09/02 05:17:34;;;;;;;85.45;42.13;;;;;;;10.82;72.81;100111.66;1646149;86;21166;-78
2022/09/02 05:20:05;;;;;;;88.70;40.70;;;;;;;10.93;72.27;100108.31;1639409;86;21629;-77
2022/09/02 05:22:34;;;;;;;85.12;40.70;;;;;;;11.04;71.88;100106.23;1605102;88;21967;-77
2022/09/02 05:25:06;;;;;;;88.87;44.27;;;;;;;11.16;71.72;100106.34;1604887;89;21008;-76
2022/09/02 05:27:34;;;;;;;104.40;45.65;;;;;;;11.28;71.32;100105.14;1605031;89;21122;-77
2022/09/02 05:30:02;;;;;;;95.32;44.20;;;;;;;11.39;71.08;100103.07;1604740;88;21623;-78
2022/09/02 05:32:30;;;;;;;99.92;44.15;;;;;;;11.52;70.75;100106.23;1606096;89;21160;-77
2022/09/02 05:34:57;;;;;;;90.45;43.28;;;;;;;11.63;70.47;100113.81;1604994;89;21115;-78
2022/09/02 05:37:23;;;;;;;102.12;43.20;;;;;;;11.72;70.12;100114.87;1604831;89;21088;-77
2022/09/02 05:39:51;;;;;;;102.82;44.00;;;;;;;11.81;69.63;100115.90;1604742;89;21039;-76
2022/09/02 05:42:19;;;;;;;96.22;45.75;;;;;;;11.94;69.62;100118.22;1604766;89;21095;-78
2022/09/02 05:44:47;;;;;;;92.80;45.63;;;;;;;12.06;69.17;100120.47;1604969;89;21530;-77
2022/09/02 05:47:15;;;;;;;94.72;45.70;;;;;;;12.17;68.94;100116.16;1604881;89;21652;-77
2022/09/02 05:49:43;;;;;;;101.67;45.55;;;;;;;12.32;68.38;100118.77;1604789;89;21485;-77
2022/09/02 05:52:12;;;;;;;98.52;48.08;;;;;;;12.44;68.13;100115.29;1604861;89;21710;-77
2022/09/02 05:54:40;;;;;;;112.50;56.83;;;;;;;12.57;67.83;100118.37;1604492;89;21130;-77
2022/09/02 05:57:14;;;;;;;119.82;58.33;;;;;;;12.75;67.38;100118.69;1604769;89;21095;-78
2022/09/02 05:59:57;;;;;;;114.37;56.25;;;;;;;12.91;66.63;100111.97;1604076;89;21598;-77
2022/09/02 06:02:25;;;;;;;96.85;48.45;;;;;;;13.09;66.15;100121.47;1604992;88;21052;-77
2022/09/02 06:04:53;;;;;;;85.10;41.28;;;;;;;13.22;65.51;100112.19;1604845;89;21055;-77
2022/09/02 06:07:22;;;;;;;82.90;42.13;;;;;;;13.35;64.81;100116.62;1605078;89;21063;-78
2022/09/02 06:09:50;;;;;;;99.67;50.78;;;;;;;13.50;63.01;100119.13;1604881;89;21083;-77
2022/09/02 06:12:19;;;;;;;109.55;56.15;;;;;;;13.62;62.71;100117.38;1604992;89;21375;-78
2022/09/02 06:14:47;;;;;;;128.57;63.40;;;;;;;13.75;62.50;100124.36;1604647;89;21115;-78
2022/09/02 06:17:14;;;;;;;129.55;61.77;;;;;;;13.85;61.26;100123.12;1604845;89;21542;-77
2022/09/02 06:19:42;;;;;;;146.53;77.17;;;;;;;13.94;60.95;100125.86;1608496;87;21040;-78
2022/09/02 06:22:10;;;;;;;148.85;76.35;;;;;;;14.05;59.94;100132.90;1634134;86;21027;-78
2022/09/02 06:24:37;;;;;;;138.47;72.58;;;;;;;14.13;59.16;100140.08;1634359;87;21156;-77
2022/09/02 06:27:06;;;;;;;143.52;76.90;;;;;;;14.21;58.48;100135.82;1639023;87;20865;-78
2022/09/02 06:29:34;;;;;;;176.72;96.53;;;;;;;14.29;58.18;100136.38;1640689;86;21080;-78
2022/09/02 06:32:01;;;;;;;195.57;105.85;;;;;;;14.36;58.52;100131.70;1666992;86;22406;-77
2022/09/02 06:34:29;;;;;;;184.28;98.62;;;;;;;14.46;57.99;100134.84;1666919;85;21062;-78
2022/09/02 06:36:56;;;;;;;193.75;105.30;;;;;;;14.54;57.77;100142.02;1667138;85;21796;-77
2022/09/02 06:39:24;;;;;;;174.95;94.97;;;;;;;14.63;57.70;100142.13;1666670;86;21069;-77
2022/09/02 06:41:52;;;;;;;155.55;82.90;;;;;;;14.73;56.67;100131.55;1667055;86;21071;-77
2022/09/02 06:44:20;;;;;;;130.35;65.60;;;;;;;14.90;56.07;100133.95;1667031;86;21137;-77
2022/09/02 06:46:56;;;;;;;132.27;74.87;;;;;;;15.02;55.13;100137.39;1666930;86;21070;-76
2022/09/02 06:52:05;;;;;;;125.10;60.23;;;;;;;15.30;53.62;100136.17;1868812;76;22736;-77
2022/09/02 06:54:33;;;;;;;60.63;33.30;;;;;;;15.37;53.66;100137.17;1825116;77;21018;-75
2022/09/02 06:57:04;;;;;;;56.02;29.80;;;;;;;15.51;52.32;100133.03;1823238;78;21182;-76
2022/09/02 06:59:33;;;;;;;36.35;20.40;;;;;;;15.63;51.22;100138.25;1824972;78;21499;-74
2022/09/02 07:02:00;;;;;;;34.83;19.20;;;;;;;15.73;50.48;100140.88;1824930;78;21474;-76
2022/09/02 07:07:14;;;;;;;23.38;11.93;;;;;;;15.87;48.89;100150.88;1824928;78;21588;-77
2022/09/02 07:09:43;;;;;;;18.87;10.78;;;;;;;16.00;48.67;100155.16;1824558;78;21212;-77
2022/09/02 07:12:11;;;;;;;12.23;7.60;;;;;;;16.16;47.61;100155.69;1824834;78;21493;-77
2022/09/02 07:14:42;;;;;;;17.12;7.80;;;;;;;16.29;47.45;100162.61;1787905;80;21098;-77
2022/09/02 07:17:20;;;;;;;12.88;6.50;;;;;;;16.45;46.24;100155.22;1788640;80;21529;-77
2022/09/02 07:19:41;;;;;;;15.80;7.00;;;;;;;16.60;45.63;100159.78;1787280;80;21454;-78
2022/09/02 07:22:08;;;;;;;17.98;7.47;;;;;;;16.71;45.29;100164.58;1788519;80;21277;-77
2022/09/02 07:24:37;;;;;;;12.80;6.83;;;;;;;16.82;44.29;100165.36;1788590;80;20963;-78
2022/09/02 07:27:04;;;;;;;11.22;5.78;;;;;;;16.94;44.29;100160.77;1788564;80;21034;-77
2022/09/02 07:29:32;;;;;;;10.63;5.75;;;;;;;17.04;43.52;100162.50;1788562;80;21030;-77
2022/09/02 07:31:59;;;;;;;14.83;5.95;;;;;;;17.12;42.83;100159.47;1788515;80;21022;-78
2022/09/02 07:34:28;;;;;;;8.53;5.80;;;;;;;17.18;42.93;100153.36;1757852;80;21544;-78
2022/09/02 07:36:54;;;;;;;10.95;4.83;;;;;;;17.27;43.09;100160.00;1788702;80;22304;-78
2022/09/02 07:39:22;;;;;;;8.38;4.62;;;;;;;17.33;39.98;100168.11;1788512;80;21093;-77
2022/09/02 07:41:49;;;;;;;11.15;4.55;;;;;;;17.21;40.58;100166.95;1757930;80;20975;-78
2022/09/02 07:44:17;;;;;;;7.37;4.47;;;;;;;17.15;41.11;100164.62;1788631;80;21046;-77
2022/09/02 07:46:44;;;;;;;7.67;4.42;;;;;;;17.20;40.80;100158.60;1788429;79;21082;-78
2022/09/02 07:49:12;;;;;;;6.78;4.72;;;;;;;17.25;40.02;100158.74;1788792;80;20968;-77
2022/09/02 07:51:42;;;;;;;6.97;4.08;;;;;;;17.28;39.89;100159.03;1792672;79;21046;-78
2022/09/02 07:54:10;;;;;;;9.73;3.98;;;;;;;17.31;40.32;100154.89;1794568;79;21049;-77
2022/09/02 07:56:37;;;;;;;5.75;3.85;;;;;;;17.34;39.94;100151.23;1794308;79;21026;-76
2022/09/02 07:59:04;;;;;;;16.10;3.60;;;;;;;17.42;40.29;100153.02;1794410;79;21187;-78
2022/09/02 08:01:35;;;;;;;2.17;1.55;;;;;;;17.59;39.57;100153.45;1794367;79;21549;-78
2022/09/02 08:04:03;;;;;;;5.70;1.70;;;;;;;17.69;37.77;100149.34;1764698;80;22224;-77
2022/09/02 08:06:32;;;;;;;4.40;1.72;;;;;;;17.75;37.82;100147.69;1794267;80;21541;-78
2022/09/02 08:08:59;;;;;;;1.72;1.62;;;;;;;17.90;38.15;100146.48;1793746;80;21062;-79
2022/09/02 08:11:27;;;;;;;2.90;1.30;;;;;;;18.06;37.98;100143.84;1793789;80;21113;-79
2022/09/02 08:13:53;;;;;;;2.83;1.60;;;;;;;18.24;38.05;100141.93;1793694;80;21053;-78
2022/09/02 08:16:21;;;;;;;1.25;1.10;;;;;;;18.45;37.33;100141.20;1793540;80;21072;-77
2022/09/02 08:18:48;;;;;;;6.17;1.30;;;;;;;18.61;36.15;100142.04;1793663;80;21093;-78
2022/09/02 08:21:15;;;;;;;4.22;1.75;;;;;;;18.60;36.05;100136.80;1793690;80;21564;-77
2022/09/02 08:23:41;;;;;;;8.78;1.62;;;;;;;18.60;36.63;100139.45;1794120;80;21185;-77
2022/09/02 08:26:10;;;;;;;7.08;1.87;;;;;;;18.63;36.43;100133.95;1793822;80;21045;-77
2022/09/02 08:28:37;;;;;;;3.65;2.62;;;;;;;18.61;36.33;100141.16;1794051;80;21310;-78
2022/09/02 08:31:07;;;;;;;8.88;2.60;;;;;;;18.60;36.48;100136.80;1793751;80;21054;-77
2022/09/02 08:33:34;;;;;;;7.03;1.95;;;;;;;18.62;36.62;100136.23;1793830;80;21037;-78
2022/09/02 08:36:09;;;;;;;6.35;2.50;;;;;;;18.71;36.74;100137.00;1765121;80;21169;-79
2022/09/02 08:38:37;;;;;;;5.37;2.35;;;;;;;18.87;36.19;100135.19;1793740;80;21110;-79
2022/09/02 08:41:24;;;;;;;6.33;2.45;;;;;;;19.01;35.52;100132.17;1794255;80;21057;-78
2022/09/02 08:43:55;;;;;;;6.10;1.85;;;;;;;18.99;34.68;100132.75;1793516;80;21536;-78
2022/09/02 08:46:24;;;;;;;4.60;2.45;;;;;;;18.90;35.21;100132.34;1793919;80;21042;-78
2022/09/02 08:49:04;;;;;;;5.35;2.35;;;;;;;18.88;34.78;100136.92;1793919;80;21172;-80
2022/09/02 08:51:47;;;;;;;3.05;2.30;;;;;;;18.79;35.40;100136.56;1790549;80;21505;-78
2022/09/02 08:54:28;;;;;;;6.15;2.08;;;;;;;18.73;35.08;100132.47;1787963;80;21623;-77
2022/09/02 08:56:55;;;;;;;3.83;1.30;;;;;;;18.74;36.08;100132.37;1788213;80;21022;-76
2022/09/02 08:59:24;;;;;;;3.92;1.90;;;;;;;18.89;34.94;100127.95;1787784;80;21058;-76
2022/09/02 09:02:25;;;;;;;2.80;1.30;;;;;;;18.93;34.55;100132.66;1788116;80;21230;-77
2022/09/02 09:05:29;;;;;;;5.22;1.20;;;;;;;19.01;34.39;100133.52;1787798;80;21049;-77
2022/09/02 09:08:32;;;;;;;2.77;1.20;;;;;;;19.04;33.68;100125.33;1787905;80;20931;-78
2022/09/02 09:11:27;;;;;;;3.75;1.70;;;;;;;19.06;34.07;100121.64;1787713;80;21121;-79
2022/09/02 09:14:14;;;;;;;8.83;2.37;;;;;;;19.22;33.62;100132.22;1787907;80;21045;-79
2022/09/02 09:16:57;;;;;;;14.15;2.60;;;;;;;19.28;34.33;100119.85;1788024;80;20975;-77
2022/09/02 09:19:44;;;;;;;4.28;2.40;;;;;;;19.43;33.50;100118.52;1788265;80;21097;-77
2022/09/02 09:22:13;;;;;;;7.25;2.62;;;;;;;19.54;32.96;100116.05;1787997;80;21513;-77
2022/09/02 09:24:45;;;;;;;12.65;2.80;;;;;;;19.54;32.44;100123.20;1788147;80;21046;-76
2022/09/02 09:27:17;;;;;;;8.83;2.60;;;;;;;19.40;33.78;100126.70;1787945;80;21046;-77
2022/09/02 09:29:44;;;;;;;6.58;2.80;;;;;;;19.41;33.53;100121.76;1788147;80;21776;-77
2022/09/02 09:32:33;;;;;;;6.47;2.98;;;;;;;19.34;32.38;100135.11;1787922;80;21561;-77
2022/09/02 09:35:09;;;;;;;4.65;2.87;;;;;;;19.16;32.54;100129.91;1757352;80;21568;-77
2022/09/02 09:37:42;;;;;;;7.42;2.85;;;;;;;19.02;33.08;100124.09;1787904;80;21109;-77
2022/09/02 09:40:25;;;;;;;5.40;2.60;;;;;;;19.06;33.77;100115.42;1788231;80;21125;-77
2022/09/02 09:43:12;;;;;;;6.50;2.90;;;;;;;19.25;32.93;100118.70;1788063;80;21874;-79
2022/09/02 09:45:46;;;;;;;5.35;3.45;;;;;;;19.37;32.94;100113.58;1788363;80;21011;-77
2022/09/02 09:48:30;;;;;;;7.12;3.60;;;;;;;19.52;33.45;100114.41;1787903;80;21033;-77
2022/09/02 09:51:04;;;;;;;4.83;2.58;;;;;;;19.66;33.16;100113.92;1787647;80;21061;-78
2022/09/02 09:53:33;;;;;;;9.50;2.80;;;;;;;19.80;31.40;100124.25;1788113;80;20987;-77
2022/09/02 09:56:18;;;;;;;7.22;2.90;;;;;;;19.74;32.29;100113.94;1787848;80;21851;-77
2022/09/02 09:58:47;;;;;;;5.90;2.80;;;;;;;19.81;33.05;100117.97;1787744;80;21113;-77
2022/09/02 10:01:30;;;;;;;4.33;2.60;;;;;;;20.12;32.26;100125.34;1788117;80;21117;-77
2022/09/02 10:04:12;;;;;;;8.35;3.05;;;;;;;20.37;31.89;100117.91;1787694;80;21033;-78
2022/09/02 10:06:43;;;;;;;4.85;2.87;;;;;;;20.65;31.17;100116.13;1788185;80;21057;-76
2022/09/02 10:09:24;;;;;;;7.70;2.60;;;;;;;20.66;30.36;100118.70;1787869;80;21277;-77
2022/09/02 10:12:06;;;;;;;5.65;2.42;;;;;;;20.63;31.36;100116.23;1787816;80;21473;-77
2022/09/02 10:14:46;;;;;;;3.83;2.95;;;;;;;20.74;31.49;100115.00;1787905;80;21060;-76
2022/09/02 10:18:00;;;;;;;4.55;2.70;;;;;;;20.99;31.32;100120.03;1788129;80;20987;-77
2022/09/02 10:20:55;;;;;;;4.70;3.17;;;;;;;21.19;30.88;100101.76;1788106;80;21014;-78
2022/09/02 10:23:42;;;;;;;4.30;2.47;;;;;;;21.25;29.96;100108.00;1788428;80;21164;-77
2022/09/02 10:26:37;;;;;;;6.85;2.92;;;;;;;20.99;30.27;100107.14;1787696;80;21034;-78
2022/09/02 10:29:39;;;;;;;4.80;3.10;;;;;;;20.95;30.04;100106.50;1787590;80;21046;-77
2022/09/02 10:32:17;;;;;;;4.95;3.20;;;;;;;20.86;29.56;100104.44;1787676;80;21086;-78
2022/09/02 10:35:11;;;;;;;5.47;2.47;;;;;;;20.80;29.70;100095.52;1787954;80;20981;-78
2022/09/02 10:38:07;;;;;;;4.58;2.80;;;;;;;20.78;30.41;100097.80;1788022;80;21534;-76
2022/09/02 10:40:44;;;;;;;5.65;2.67;;;;;;;20.76;30.04;100100.19;1787750;80;21101;-77
2022/09/02 10:43:42;;;;;;;7.60;2.85;;;;;;;20.67;30.54;100109.70;1787977;80;21067;-76
2022/09/02 10:46:09;;;;;;;5.95;2.85;;;;;;;20.61;30.56;100106.09;1787039;80;21074;-77
2022/09/02 10:49:00;;;;;;;5.08;2.40;;;;;;;20.69;29.74;100103.77;1787766;80;21765;-78
2022/09/02 10:51:50;;;;;;;9.15;2.95;;;;;;;20.72;30.01;100110.25;1789123;80;21128;-78
2022/09/02 10:54:43;;;;;;;3.17;2.72;;;;;;;20.64;29.90;100109.05;1793732;80;21137;-78
2022/09/02 10:57:20;;;;;;;4.22;3.50;;;;;;;20.68;29.78;100108.75;1793648;80;21033;-78
2022/09/02 10:59:52;;;;;;;8.85;4.20;;;;;;;20.74;29.61;100104.30;1765414;80;21018;-78
2022/09/02 11:02:23;;;;;;;9.85;4.08;;;;;;;20.77;30.07;100094.75;1793479;80;21312;-78
2022/09/02 11:05:06;;;;;;;8.83;4.17;;;;;;;20.91;30.15;100103.64;1792570;80;21105;-76
2022/09/02 11:07:48;;;;;;;13.98;8.08;;;;;;;21.05;29.86;100098.70;1794022;80;21074;-78
2022/09/02 11:10:25;;;;;;;7.30;4.85;;;;;;;21.26;30.33;100097.69;1794041;80;21477;-77
2022/09/02 11:13:29;;;;;;;11.35;7.20;;;;;;;21.54;30.28;100095.78;1793675;80;21065;-77
2022/09/02 11:16:18;;;;;;;10.93;4.75;;;;;;;21.81;29.32;100097.80;1793062;80;21109;-78
2022/09/02 11:18:59;;;;;;;9.80;4.55;;;;;;;22.05;28.87;100099.66;1793717;80;21182;-78
2022/09/02 11:21:43;;;;;;;9.45;4.87;;;;;;;22.12;28.93;100095.55;1794030;80;20998;-78
2022/09/02 11:24:18;;;;;;;7.78;4.33;;;;;;;22.21;29.08;100102.94;1793969;80;21058;-77
2022/09/02 11:27:13;;;;;;;9.58;4.80;;;;;;;22.37;28.13;100095.96;1793870;80;21077;-78
2022/09/02 11:30:16;;;;;;;9.07;5.07;;;;;;;22.55;28.31;100095.08;1794021;80;21042;-78
2022/09/02 11:33:08;;;;;;;7.33;4.90;;;;;;;22.61;27.35;100091.94;1793466;80;21606;-78
2022/09/02 11:35:37;;;;;;;9.40;5.80;;;;;;;22.70;28.28;100098.92;1793695;80;21038;-78
2022/09/02 11:38:33;;;;;;;7.17;5.28;;;;;;;22.97;28.14;100098.13;1793968;79;21037;-77
2022/09/02 11:41:41;;;;;;;9.05;5.58;;;;;;;23.17;27.49;100091.75;1793938;80;21041;-78
2022/09/02 11:44:35;;;;;;;17.37;6.20;;;;;;;23.33;26.97;100100.31;1793896;80;20982;-77
2022/09/02 11:47:10;;;;;;;8.93;6.17;;;;;;;23.37;26.79;100087.50;1793589;80;22752;-78
2022/09/02 11:49:57;;;;;;;9.25;6.03;;;;;;;23.25;25.79;100094.69;1793834;80;20963;-77